Time;durP1;ratioP1;P1;durP2;ratioP2;P2;SDS_P1;SDS_P2;PMS_P1;PMS_P2;Temp;Humidity;BMP_temperature;BMP_pressure;BME280_temperature;BME280_humidity;BME280_pressure;Samples;Min_cycle;Max_cycle;Signal;HPM_P1;HPM_P2
2020/12/13 00:00:08;;;;;;;9.98;9.07;;;7.20;99.90;;;;;;6054504;23;20189;-83
2020/12/13 00:02:34;;;;;;;9.43;7.63;;;7.50;99.90;;;;;;6055176;23;20182;-83
2020/12/13 00:05:00;;;;;;;8.40;7.60;;;7.90;99.90;;;;;;6055319;23;20285;-83
2020/12/13 00:07:27;;;;;;;7.68;6.82;;;7.30;99.90;;;;;;6055212;23;20213;-82
2020/12/13 00:09:53;;;;;;;7.47;6.78;;;7.40;99.90;;;;;;6055203;23;20233;-83
2020/12/13 00:12:19;;;;;;;7.45;6.75;;;7.40;99.90;;;;;;6056114;23;20226;-82
2020/12/13 00:14:46;;;;;;;7.20;6.50;;;7.30;99.90;;;;;;6056202;23;20186;-82
2020/12/13 00:17:12;;;;;;;6.55;6.05;;;7.30;99.90;;;;;;6055978;23;20202;-83
2020/12/13 00:19:38;;;;;;;9.00;8.00;;;7.30;99.90;;;;;;6055842;23;20188;-82
2020/12/13 00:22:04;;;;;;;7.05;6.35;;;7.30;99.90;;;;;;6056051;23;20205;-82
2020/12/13 00:24:31;;;;;;;6.90;6.20;;;7.20;99.90;;;;;;6056332;23;20186;-83
2020/12/13 00:26:57;;;;;;;7.43;6.72;;;7.20;99.90;;;;;;6054692;23;20202;-83
2020/12/13 00:29:24;;;;;;;6.78;6.15;;;7.20;99.90;;;;;;6054434;23;20193;-82
2020/12/13 00:31:50;;;;;;;7.97;6.10;;;7.30;99.90;;;;;;6053314;23;20206;-83
2020/12/13 00:34:16;;;;;;;8.90;8.02;;;7.30;99.90;;;;;;6053249;23;20186;-82
2020/12/13 00:36:43;;;;;;;6.97;6.28;;;7.30;99.90;;;;;;6054318;23;20205;-82
2020/12/13 00:39:09;;;;;;;7.85;6.57;;;7.40;99.90;;;;;;6054059;23;20177;-83
2020/12/13 00:41:36;;;;;;;8.18;7.25;;;7.30;99.90;;;;;;6053487;23;20178;-83
2020/12/13 00:44:02;;;;;;;8.55;6.40;;;7.30;99.90;;;;;;6053132;23;20186;-83
2020/12/13 00:46:28;;;;;;;8.07;7.35;;;7.30;99.90;;;;;;6052820;23;20202;-82
2020/12/13 00:48:55;;;;;;;7.78;7.07;;;7.30;99.90;;;;;;6053294;23;20190;-83
2020/12/13 00:51:23;;;;;;;7.10;6.40;;;7.40;99.90;;;;;;6053146;23;20289;-84
2020/12/13 00:53:49;;;;;;;7.53;6.82;;;7.30;99.90;;;;;;6053214;23;20197;-83
2020/12/13 00:56:15;;;;;;;8.05;7.35;;;7.40;99.90;;;;;;6052830;23;20257;-84
2020/12/13 00:58:42;;;;;;;8.40;7.53;;;7.40;99.90;;;;;;6054149;23;20184;-84
2020/12/13 01:01:08;;;;;;;8.20;7.40;;;7.40;99.90;;;;;;6054157;23;20182;-84
2020/12/13 01:03:34;;;;;;;10.15;7.63;;;7.40;99.90;;;;;;6053839;23;20186;-84
2020/12/13 01:06:01;;;;;;;7.38;6.68;;;7.40;99.90;;;;;;6053481;23;20536;-83
2020/12/13 01:08:27;;;;;;;7.32;6.75;;;7.40;99.90;;;;;;6054602;23;20182;-84
2020/12/13 01:10:53;;;;;;;6.70;6.10;;;8.20;99.90;;;;;;6054156;23;20208;-83
2020/12/13 01:13:19;;;;;;;6.40;5.80;;;7.40;99.90;;;;;;6053946;23;20294;-83
2020/12/13 01:15:48;;;;;;;6.43;5.68;;;7.80;99.90;;;;;;6054282;23;20188;-83
2020/12/13 01:18:14;;;;;;;6.30;5.72;;;7.40;99.90;;;;;;6054580;23;20205;-83
2020/12/13 01:20:40;;;;;;;6.35;5.70;;;7.40;99.90;;;;;;6054225;23;20178;-84
2020/12/13 01:23:07;;;;;;;5.30;4.90;;;7.40;99.90;;;;;;6053799;23;20485;-81
2020/12/13 01:25:34;;;;;;;5.55;5.10;;;7.40;99.90;;;;;;6054120;23;20546;-82
2020/12/13 01:28:00;;;;;;;7.07;5.90;;;7.40;99.90;;;;;;6053410;23;20668;-81
2020/12/13 01:30:26;;;;;;;5.88;5.10;;;7.40;99.90;;;;;;6054496;23;20195;-82
2020/12/13 01:32:53;;;;;;;5.55;4.53;;;7.40;99.90;;;;;;6054260;23;20200;-81
2020/12/13 01:35:19;;;;;;;5.00;4.60;;;7.40;99.90;;;;;;6055953;23;20236;-81
2020/12/13 01:37:46;;;;;;;4.88;4.47;;;7.30;99.90;;;;;;6055916;23;20209;-80
2020/12/13 01:40:12;;;;;;;5.30;4.47;;;7.40;99.90;;;;;;6056738;23;20186;-81
2020/12/13 01:42:39;;;;;;;3.88;3.47;;;7.40;99.90;;;;;;6057158;23;20192;-81
2020/12/13 01:45:05;;;;;;;4.65;3.90;;;7.40;99.90;;;;;;6056478;23;20192;-81
2020/12/13 01:47:32;;;;;;;4.45;4.10;;;7.30;99.90;;;;;;6057026;23;20202;-80
2020/12/13 01:49:59;;;;;;;5.32;4.82;;;7.30;99.90;;;;;;6056574;23;20182;-81
2020/12/13 01:52:42;;;;;;;4.70;4.30;;;8.20;99.90;;;;;;6056359;23;20210;-81
2020/12/13 01:55:10;;;;;;;9.07;5.20;;;7.30;99.90;;;;;;6058008;23;20170;-81
2020/12/13 01:57:38;;;;;;;5.82;5.25;;;7.30;99.90;;;;;;6057380;23;20201;-81
2020/12/13 02:00:08;;;;;;;4.70;4.30;;;7.30;99.90;;;;;;6057677;23;20196;-81
2020/12/13 02:02:42;;;;;;;4.82;4.15;;;7.30;99.90;;;;;;6057293;23;20612;-82
2020/12/13 02:05:12;;;;;;;5.50;5.10;;;7.20;99.90;;;;;;6056999;23;20170;-81
2020/12/13 02:07:39;;;;;;;4.70;4.28;;;7.20;99.90;;;;;;6057119;23;20525;-81
2020/12/13 02:10:10;;;;;;;4.72;4.32;;;7.20;99.90;;;;;;6057670;23;20185;-81
2020/12/13 02:12:37;;;;;;;5.90;4.55;;;7.20;99.90;;;;;;6056967;23;20209;-81
2020/12/13 02:15:06;;;;;;;4.38;4.00;;;7.30;99.90;;;;;;6057165;23;20182;-81
2020/12/13 02:17:36;;;;;;;6.22;4.75;;;7.30;99.90;;;;;;6057541;23;20202;-81
2020/12/13 02:20:06;;;;;;;4.75;4.35;;;7.30;99.90;;;;;;6056918;23;20241;-81
2020/12/13 02:22:33;;;;;;;5.68;4.78;;;7.30;99.90;;;;;;6057331;23;20172;-81
2020/12/13 02:25:11;;;;;;;6.10;5.65;;;7.30;99.90;;;;;;6057501;23;20186;-81
2020/12/13 02:27:37;;;;;;;5.28;4.80;;;7.30;99.90;;;;;;6057569;23;20281;-81
2020/12/13 02:30:05;;;;;;;5.38;4.88;;;8.20;99.90;;;;;;6056909;23;20188;-82
2020/12/13 02:32:32;;;;;;;6.72;5.65;;;7.30;99.90;;;;;;6057549;23;20202;-81
2020/12/13 02:34:58;;;;;;;6.47;5.90;;;7.40;99.90;;;;;;6057173;23;20186;-81
2020/12/13 02:37:24;;;;;;;6.18;5.63;;;7.30;99.90;;;;;;6056914;23;20217;-82
2020/12/13 02:39:51;;;;;;;7.07;6.38;;;7.40;99.90;;;;;;6056727;23;20186;-81
2020/12/13 02:42:17;;;;;;;8.15;7.45;;;7.40;99.90;;;;;;6056702;23;20182;-82
2020/12/13 02:44:44;;;;;;;8.00;5.80;;;7.30;99.90;;;;;;6056755;23;20196;-81
2020/12/13 02:47:10;;;;;;;7.90;6.25;;;7.30;99.90;;;;;;6058160;23;20205;-81
2020/12/13 02:49:40;;;;;;;5.45;4.95;;;7.30;99.90;;;;;;6057955;23;20192;-81
2020/12/13 02:52:06;;;;;;;5.78;5.22;;;7.30;99.90;;;;;;6057238;23;20257;-83
2020/12/13 02:54:32;;;;;;;5.97;5.38;;;7.20;99.90;;;;;;6058049;23;20243;-81
2020/12/13 02:56:59;;;;;;;5.25;4.85;;;7.30;99.90;;;;;;6057428;23;20285;-81
2020/12/13 02:59:25;;;;;;;4.93;4.47;;;7.80;99.90;;;;;;6057353;23;20201;-81
2020/12/13 03:01:54;;;;;;;5.97;5.45;;;7.90;99.90;;;;;;6057822;23;20178;-81
2020/12/13 03:04:21;;;;;;;6.05;4.75;;;7.30;99.90;;;;;;6056913;23;20192;-81
2020/12/13 03:06:47;;;;;;;5.07;4.55;;;7.60;99.90;;;;;;6057902;23;20224;-81
2020/12/13 03:09:13;;;;;;;5.38;4.90;;;7.30;99.90;;;;;;6057228;23;20348;-81
2020/12/13 03:11:40;;;;;;;5.80;5.30;;;7.40;99.90;;;;;;6055283;23;20190;-81
2020/12/13 03:14:07;;;;;;;7.45;5.80;;;7.40;99.90;;;;;;6055883;23;20182;-81
2020/12/13 03:16:33;;;;;;;7.88;6.18;;;7.40;99.90;;;;;;6055912;23;20212;-81
2020/12/13 03:18:59;;;;;;;7.28;6.57;;;7.40;99.90;;;;;;6055294;23;20203;-81
2020/12/13 03:21:26;;;;;;;7.15;6.45;;;7.40;99.90;;;;;;6056192;23;20182;-81
2020/12/13 03:23:52;;;;;;;6.90;6.30;;;7.40;99.90;;;;;;6057102;23;20186;-81
2020/12/13 03:26:18;;;;;;;7.68;7.05;;;7.40;99.90;;;;;;6056298;23;20205;-85
2020/12/13 03:28:44;;;;;;;6.45;5.80;;;7.30;99.90;;;;;;6056004;23;20190;-84
2020/12/13 03:31:11;;;;;;;7.03;6.07;;;7.30;99.90;;;;;;6056103;23;20228;-82
2020/12/13 03:33:37;;;;;;;5.88;5.38;;;7.30;99.90;;;;;;6055463;23;20192;-81
2020/12/13 03:36:04;;;;;;;6.45;5.95;;;7.30;99.90;;;;;;6054786;23;20219;-81
2020/12/13 03:38:30;;;;;;;7.63;6.10;;;7.30;99.90;;;;;;6054893;23;20186;-81
2020/12/13 03:40:56;;;;;;;6.68;6.07;;;7.30;99.90;;;;;;6054260;23;20193;-81
2020/12/13 03:43:22;;;;;;;19.98;10.38;;;7.30;99.90;;;;;;6054317;23;20189;-82
2020/12/13 03:45:49;;;;;;;7.50;6.80;;;7.30;99.90;;;;;;6055905;23;20240;-82
2020/12/13 03:48:16;;;;;;;8.10;7.35;;;7.30;99.90;;;;;;6055479;23;20185;-82
2020/12/13 03:50:42;;;;;;;9.27;7.82;;;7.20;99.90;;;;;;6054198;23;20186;-82
2020/12/13 03:53:10;;;;;;;9.35;8.45;;;7.00;99.90;;;;;;6053917;23;20186;-82
2020/12/13 03:55:36;;;;;;;9.38;7.18;;;7.30;99.90;;;;;;6054735;23;20523;-81
2020/12/13 03:58:03;;;;;;;10.43;7.72;;;7.00;99.90;;;;;;6054394;23;20197;-81
2020/12/13 04:00:30;;;;;;;7.40;6.70;;;7.00;99.90;;;;;;6056340;23;20185;-82
2020/12/13 04:02:57;;;;;;;7.57;6.88;;;7.00;99.90;;;;;;6056150;23;20193;-81
2020/12/13 04:05:24;;;;;;;8.07;7.22;;;7.20;99.90;;;;;;6056860;23;20186;-82
2020/12/13 04:07:51;;;;;;;9.05;7.85;;;7.00;99.90;;;;;;6056806;23;20205;-81
2020/12/13 04:10:18;;;;;;;7.80;7.10;;;7.10;99.90;;;;;;6056173;23;20185;-82
2020/12/13 04:12:45;;;;;;;8.45;7.53;;;7.10;99.90;;;;;;6054599;23;20235;-81
2020/12/13 04:15:12;;;;;;;8.13;7.28;;;7.20;99.90;;;;;;6055779;23;20189;-81
2020/12/13 04:17:38;;;;;;;6.90;6.30;;;7.20;99.90;;;;;;6055844;23;20208;-81
2020/12/13 04:20:06;;;;;;;7.47;6.75;;;7.00;99.90;;;;;;6055259;23;20190;-81
2020/12/13 04:22:33;;;;;;;7.43;5.72;;;7.30;99.90;;;;;;6055001;23;20667;-81
2020/12/13 04:25:00;;;;;;;6.75;6.15;;;7.60;99.90;;;;;;6055331;23;20186;-83
2020/12/13 04:27:26;;;;;;;6.10;5.50;;;7.20;99.90;;;;;;6055984;23;20226;-82
2020/12/13 04:29:52;;;;;;;7.25;6.55;;;7.30;99.90;;;;;;6055941;23;20186;-82
2020/12/13 04:32:21;;;;;;;5.50;5.03;;;7.30;99.90;;;;;;6055721;23;20234;-82
2020/12/13 04:34:47;;;;;;;6.45;5.65;;;7.50;99.90;;;;;;6056052;23;20186;-82
2020/12/13 04:37:14;;;;;;;5.38;4.80;;;7.30;99.90;;;;;;6054200;23;20518;-84
2020/12/13 04:39:41;;;;;;;7.53;6.70;;;7.20;99.90;;;;;;6056488;23;20269;-82
2020/12/13 04:42:07;;;;;;;6.65;5.93;;;7.20;99.90;;;;;;6055477;23;20539;-82
2020/12/13 04:44:36;;;;;;;5.70;5.20;;;7.20;99.90;;;;;;6056475;23;20186;-82
2020/12/13 04:47:03;;;;;;;6.22;5.38;;;7.20;99.90;;;;;;6055645;23;20675;-81
2020/12/13 04:49:32;;;;;;;5.53;4.95;;;7.20;99.90;;;;;;6056494;23;20205;-81
2020/12/13 04:51:59;;;;;;;5.05;4.65;;;8.00;99.90;;;;;;6056095;23;20531;-82
2020/12/13 04:54:29;;;;;;;6.57;5.97;;;7.20;99.90;;;;;;6056743;23;20295;-81
2020/12/13 04:56:58;;;;;;;7.63;6.05;;;7.10;99.90;;;;;;6055265;23;20556;-84
2020/12/13 04:59:25;;;;;;;6.15;4.95;;;7.00;99.90;;;;;;6054595;23;20193;-82
2020/12/13 05:01:53;;;;;;;7.50;6.68;;;7.00;99.90;;;;;;6054972;23;20182;-81
2020/12/13 05:04:20;;;;;;;5.80;5.30;;;7.10;99.90;;;;;;6054667;23;20250;-81
2020/12/13 05:06:46;;;;;;;7.20;6.10;;;7.20;99.90;;;;;;6053403;23;20752;-83
2020/12/13 05:09:14;;;;;;;5.80;5.30;;;7.20;99.90;;;;;;6054156;23;20181;-81
2020/12/13 05:11:41;;;;;;;6.38;5.60;;;7.20;99.90;;;;;;6053795;23;20222;-81
2020/12/13 05:14:08;;;;;;;5.57;5.15;;;7.20;99.90;;;;;;6053803;23;20186;-82
2020/12/13 05:16:34;;;;;;;4.82;4.40;;;7.20;99.90;;;;;;6054365;23;20209;-82
2020/12/13 05:19:01;;;;;;;5.55;5.05;;;7.20;99.90;;;;;;6054745;23;20207;-81
2020/12/13 05:21:28;;;;;;;5.70;5.20;;;7.40;99.90;;;;;;6054429;23;20182;-81
2020/12/13 05:23:54;;;;;;;7.28;5.05;;;7.30;99.90;;;;;;6054873;23;20688;-81
2020/12/13 05:26:22;;;;;;;6.30;5.10;;;7.40;99.90;;;;;;6054967;23;20205;-82
2020/12/13 05:28:50;;;;;;;6.25;5.63;;;7.40;99.90;;;;;;6054158;23;20196;-82
2020/12/13 05:31:19;;;;;;;6.25;5.72;;;7.40;99.90;;;;;;6053813;23;20213;-82
2020/12/13 05:33:49;;;;;;;5.78;5.28;;;7.40;99.90;;;;;;6053148;23;20186;-82
2020/12/13 05:36:18;;;;;;;7.03;6.20;;;7.50;99.90;;;;;;6052770;23;20206;-82
2020/12/13 05:38:45;;;;;;;5.15;4.70;;;7.50;99.90;;;;;;6051162;23;20190;-85
2020/12/13 05:41:13;;;;;;;6.60;5.75;;;7.40;99.90;;;;;;6053347;23;20209;-83
2020/12/13 05:43:43;;;;;;;7.47;6.65;;;7.50;99.90;;;;;;6054372;23;20214;-81
2020/12/13 05:46:30;;;;;;;9.40;7.07;;;7.50;99.90;;;;;;6055055;23;20209;-82
2020/12/13 05:51:49;;;;;;;7.32;6.00;;;7.50;99.90;;;;;;6054008;23;20211;-82
2020/12/13 05:54:21;;;;;;;6.57;5.93;;;7.50;99.90;;;;;;6054170;23;20182;-81
2020/12/13 05:56:55;;;;;;;8.63;7.78;;;7.50;99.90;;;;;;6054608;23;20258;-81
2020/12/13 05:59:22;;;;;;;10.50;6.93;;;7.50;99.90;;;;;;6054097;23;20176;-81
2020/12/13 06:01:48;;;;;;;10.02;6.93;;;7.40;99.90;;;;;;6054730;23;20182;-81
2020/12/13 06:04:18;;;;;;;7.93;6.88;;;7.50;99.90;;;;;;6054850;23;20254;-81
2020/12/13 06:06:45;;;;;;;7.05;5.90;;;7.50;99.90;;;;;;6054501;23;20206;-81
2020/12/13 06:09:12;;;;;;;9.32;7.75;;;7.40;99.90;;;;;;6056046;23;20627;-82
2020/12/13 06:11:47;;;;;;;6.97;6.10;;;7.40;99.90;;;;;;6055287;23;20220;-81
2020/12/13 06:14:16;;;;;;;5.97;4.90;;;7.40;99.90;;;;;;6056086;23;20232;-81
2020/12/13 06:16:43;;;;;;;6.03;5.25;;;7.40;99.90;;;;;;6055072;23;20224;-82
2020/12/13 06:19:11;;;;;;;4.90;4.53;;;7.40;99.90;;;;;;6055563;23;20244;-81
2020/12/13 06:21:39;;;;;;;4.10;3.80;;;7.40;99.90;;;;;;6055939;23;20182;-81
2020/12/13 06:24:07;;;;;;;4.78;4.30;;;7.30;99.90;;;;;;6057203;23;20363;-81
2020/12/13 06:26:34;;;;;;;5.35;4.88;;;7.30;99.90;;;;;;6056656;23;20206;-81
2020/12/13 06:29:01;;;;;;;4.05;3.67;;;7.30;99.90;;;;;;6058037;23;20189;-82
2020/12/13 06:31:28;;;;;;;5.47;3.80;;;7.30;99.90;;;;;;6056296;23;20266;-82
2020/12/13 06:33:55;;;;;;;4.43;3.70;;;7.30;99.90;;;;;;6058427;23;20197;-82
2020/12/13 06:36:23;;;;;;;3.50;3.10;;;7.30;99.90;;;;;;6057871;23;20536;-82
2020/12/13 06:38:53;;;;;;;4.00;3.65;;;7.30;99.90;;;;;;6058301;23;20192;-82
2020/12/13 06:41:22;;;;;;;4.22;3.83;;;7.30;99.90;;;;;;6058215;23;20178;-82
2020/12/13 06:43:58;;;;;;;4.22;3.85;;;7.30;99.90;;;;;;6057863;23;20186;-82
2020/12/13 06:46:25;;;;;;;4.90;4.40;;;7.30;99.90;;;;;;6057620;23;20206;-82
2020/12/13 06:48:52;;;;;;;4.63;4.22;;;7.30;99.90;;;;;;6057776;23;20457;-82
2020/12/13 06:51:25;;;;;;;3.67;3.30;;;7.30;99.90;;;;;;6058292;23;20229;-82
2020/12/13 06:53:54;;;;;;;3.83;3.53;;;7.30;99.90;;;;;;6058512;23;20177;-82
2020/12/13 06:56:21;;;;;;;4.30;3.90;;;7.60;99.90;;;;;;6057917;23;20285;-82
2020/12/13 06:58:55;;;;;;;4.07;3.67;;;8.30;99.90;;;;;;6058442;23;20186;-82
2020/12/13 07:01:22;;;;;;;3.38;3.08;;;7.20;99.90;;;;;;6057312;23;20197;-84
2020/12/13 07:03:48;;;;;;;3.15;2.85;;;7.20;99.90;;;;;;6057822;23;20228;-81
2020/12/13 07:06:20;;;;;;;5.68;3.50;;;7.20;99.90;;;;;;6057112;23;20561;-83
2020/12/13 07:08:51;;;;;;;3.80;3.50;;;7.20;99.90;;;;;;6056415;23;20253;-83
2020/12/13 07:11:19;;;;;;;3.88;3.58;;;7.20;99.90;;;;;;6056551;23;20186;-82
2020/12/13 07:13:47;;;;;;;3.50;3.20;;;7.20;99.90;;;;;;6056163;23;20186;-82
2020/12/13 07:19:04;;;;;;;2.70;2.50;;;7.20;99.90;;;;;;6052373;23;20221;-82
2020/12/13 07:21:30;;;;;;;3.67;3.30;;;7.30;99.90;;;;;;6057269;23;20190;-82
2020/12/13 07:23:59;;;;;;;3.38;2.75;;;7.20;99.90;;;;;;6057611;23;20186;-83
2020/12/13 07:26:27;;;;;;;3.85;2.90;;;7.30;99.90;;;;;;6057152;23;20213;-82
2020/12/13 07:28:54;;;;;;;5.18;3.20;;;7.30;99.90;;;;;;6058017;23;20186;-82
2020/12/13 07:31:22;;;;;;;2.38;2.28;;;7.30;99.90;;;;;;6057351;23;20206;-83
2020/12/13 07:33:49;;;;;;;1.85;1.75;;;7.40;99.90;;;;;;6056772;23;20268;-82
2020/12/13 07:36:15;;;;;;;2.10;1.90;;;7.40;99.90;;;;;;6057287;23;20201;-82
2020/12/13 07:38:42;;;;;;;1.80;1.70;;;7.40;99.90;;;;;;6055959;23;20174;-82
2020/12/13 07:41:19;;;;;;;3.05;2.15;;;7.40;99.90;;;;;;6055136;23;20182;-82
2020/12/13 07:43:58;;;;;;;2.15;1.95;;;7.40;99.90;;;;;;6054925;23;20172;-82
2020/12/13 07:46:25;;;;;;;1.60;1.50;;;7.40;99.90;;;;;;6054883;23;20213;-82
2020/12/13 07:49:02;;;;;;;1.92;1.67;;;7.50;99.90;;;;;;6056872;23;20517;-82
2020/12/13 07:51:28;;;;;;;3.22;2.63;;;7.40;99.90;;;;;;6056566;23;20205;-82
2020/12/13 07:53:55;;;;;;;2.88;2.67;;;7.40;99.90;;;;;;6056212;23;20192;-83
2020/12/13 07:56:28;;;;;;;2.50;2.30;;;7.30;99.90;;;;;;6055851;23;20548;-83
2020/12/13 07:59:12;;;;;;;3.72;3.22;;;7.20;99.90;;;;;;6056049;23;20218;-82
2020/12/13 08:01:39;;;;;;;2.28;2.08;;;7.10;99.90;;;;;;6054883;23;20625;-83
2020/12/13 08:04:06;;;;;;;2.75;2.55;;;6.90;99.90;;;;;;6056978;23;20186;-82
2020/12/13 08:06:32;;;;;;;3.10;2.67;;;6.80;99.90;;;;;;6055784;23;20231;-83
2020/12/13 08:08:59;;;;;;;2.70;2.50;;;6.90;99.90;;;;;;6053588;23;20185;-84
2020/12/13 08:11:25;;;;;;;5.70;4.20;;;6.90;99.90;;;;;;6054040;23;20204;-82
2020/12/13 08:13:54;;;;;;;3.35;3.05;;;6.80;99.90;;;;;;6055337;23;20186;-83
2020/12/13 08:16:23;;;;;;;3.78;3.45;;;6.90;99.90;;;;;;6054590;23;20202;-84
2020/12/13 08:18:53;;;;;;;4.10;3.80;;;7.00;99.90;;;;;;6054157;23;20186;-83
2020/12/13 08:21:29;;;;;;;3.60;3.25;;;6.90;99.90;;;;;;6054633;23;20163;-85
2020/12/13 08:24:01;;;;;;;4.20;3.80;;;6.80;99.90;;;;;;6054648;23;20165;-83
2020/12/13 08:26:29;;;;;;;5.65;5.25;;;6.80;99.90;;;;;;6055525;23;20209;-82
2020/12/13 08:28:58;;;;;;;4.70;3.65;;;6.70;99.90;;;;;;6055558;23;20185;-83
2020/12/13 08:31:29;;;;;;;6.18;5.05;;;6.70;99.90;;;;;;6055793;23;20205;-83
2020/12/13 08:34:03;;;;;;;5.22;4.72;;;6.80;99.90;;;;;;6054392;23;20718;-83
2020/12/13 08:36:30;;;;;;;6.00;5.50;;;6.70;99.90;;;;;;6054585;23;20209;-82
2020/12/13 08:39:04;;;;;;;5.20;4.38;;;6.70;99.90;;;;;;6053523;23;20201;-83
2020/12/13 08:41:31;;;;;;;5.72;4.10;;;6.70;99.90;;;;;;6053685;23;20169;-83
2020/12/13 08:43:57;;;;;;;5.53;4.35;;;6.70;99.90;;;;;;6053281;23;20187;-83
2020/12/13 08:46:37;;;;;;;4.80;4.30;;;6.70;99.90;;;;;;6053677;23;20265;-83
2020/12/13 08:49:03;;;;;;;5.97;5.35;;;6.80;99.90;;;;;;6053891;23;20194;-83
2020/12/13 08:51:29;;;;;;;5.78;5.38;;;6.70;99.90;;;;;;6054897;23;20202;-83
2020/12/13 08:53:57;;;;;;;5.18;4.68;;;6.80;99.90;;;;;;6055703;23;20204;-82
2020/12/13 08:56:31;;;;;;;5.90;4.57;;;6.90;99.90;;;;;;6053408;23;20205;-82
2020/12/13 08:58:59;;;;;;;4.40;4.00;;;7.00;99.90;;;;;;6053730;23;20169;-82
2020/12/13 09:01:27;;;;;;;5.30;4.80;;;7.10;99.90;;;;;;6052529;23;20210;-82
2020/12/13 09:03:54;;;;;;;5.28;4.15;;;7.50;99.90;;;;;;6060525;23;20186;-81
2020/12/13 09:06:32;;;;;;;5.13;4.63;;;7.40;99.90;;;;;;6062494;23;20194;-80
2020/12/13 09:09:08;;;;;;;3.97;3.58;;;7.50;99.90;;;;;;6062177;23;20185;-82
2020/12/13 09:11:35;;;;;;;6.18;5.55;;;7.70;99.90;;;;;;6060706;23;20209;-81
2020/12/13 09:14:01;;;;;;;7.68;3.95;;;7.80;99.90;;;;;;6061750;23;20182;-81
2020/12/13 09:16:29;;;;;;;5.60;5.10;;;7.70;99.90;;;;;;6061659;23;20202;-80
2020/12/13 09:19:04;;;;;;;6.68;4.50;;;7.70;99.90;;;;;;6061870;23;20241;-80
2020/12/13 09:21:45;;;;;;;4.13;3.78;;;7.90;99.90;;;;;;6062166;23;20426;-81
2020/12/13 09:24:12;;;;;;;4.45;4.05;;;8.00;99.90;;;;;;6061885;23;20264;-81
2020/12/13 09:26:38;;;;;;;6.60;3.97;;;8.10;99.90;;;;;;6061540;23;20206;-81
2020/12/13 09:29:05;;;;;;;5.00;4.03;;;8.20;99.90;;;;;;6061741;23;20190;-81
2020/12/13 09:31:31;;;;;;;4.30;3.90;;;8.80;99.90;;;;;;6060074;23;20206;-80
2020/12/13 09:33:58;;;;;;;5.78;4.00;;;9.50;99.90;;;;;;6061596;23;20192;-82
2020/12/13 09:36:25;;;;;;;3.92;3.53;;;8.60;99.90;;;;;;6063587;23;20206;-80
2020/12/13 09:39:08;;;;;;;;;;;;;;;;;;;;;
2020/12/13 09:41:57;;;;;;;;;;;;;;;;;;;;;
2020/12/13 09:44:56;;;;;;;4.00;3.60;;;8.80;99.90;;;;;;6058879;23;20252;-84
2020/12/13 09:47:43;;;;;;;4.20;3.80;;;8.90;99.90;;;;;;5917505;24;20213;-84
2020/12/13 09:50:32;;;;;;;6.93;3.42;;;8.90;99.90;;;;;;5889647;24;20245;-84
2020/12/13 11:03:50;;;;;;;1.40;1.30;;;7.90;99.90;;;;;;5944235;24;20187;-83
2020/12/13 11:32:45;;;;;;;;;;;;;;;;;;;;;
2020/12/13 11:53:37;;;;;;;;;;;;;;;;;;;;;
2020/12/13 12:06:46;;;;;;;;;;;;;;;;;;;;;
2020/12/13 12:16:17;;;;;;;1.77;1.67;;;7.80;99.90;;;;;;5807572;24;20198;-84
2020/12/13 12:34:39;;;;;;;;;;;;;;;;;;;;;
2020/12/13 12:37:16;;;;;;;2.08;1.80;;;8.60;99.90;;;;;;5707002;25;20237;-83
2020/12/13 12:39:42;;;;;;;2.80;1.60;;;7.80;99.90;;;;;;5832607;24;20701;-82
2020/12/13 12:42:09;;;;;;;3.17;2.10;;;7.80;99.90;;;;;;5962401;23;20183;-83
2020/12/13 12:44:35;;;;;;;1.73;1.63;;;7.80;99.90;;;;;;6019676;23;20185;-83
2020/12/13 12:47:09;;;;;;;2.53;2.05;;;7.80;99.90;;;;;;6020224;23;20210;-85
2020/12/13 13:10:33;;;;;;;;;;;;;;;;;;;;;
2020/12/13 13:17:12;;;;;;;;;;;;;;;;;;;;;
2020/12/13 13:20:33;;;;;;;;;;;;;;;;;;;;;
2020/12/13 13:23:46;;;;;;;1.95;1.50;;;8.30;99.90;;;;;;5802007;24;20184;-86
2020/12/13 13:57:04;;;;;;;2.50;2.30;;;8.40;99.90;;;;;;5699414;25;20210;-86
2020/12/13 14:02:46;;;;;;;2.58;2.35;;;9.00;99.90;;;;;;5733502;24;20199;-86
2020/12/13 14:05:26;;;;;;;3.95;2.58;;;9.20;99.90;;;;;;5979945;23;20196;-86
2020/12/13 14:11:28;;;;;;;2.85;2.05;;;9.70;99.90;;;;;;6007467;23;20181;-86
2020/12/13 14:13:57;;;;;;;3.35;3.00;;;7.60;99.90;;;;;;6080867;23;20224;-85
2020/12/13 14:16:30;;;;;;;2.58;2.35;;;9.90;99.90;;;;;;6080412;23;20227;-86
2020/12/13 14:19:05;;;;;;;3.20;2.90;;;9.50;99.90;;;;;;6080796;23;20553;-86
2020/12/13 14:22:03;;;;;;;5.55;3.05;;;8.90;99.90;;;;;;6080987;23;20177;-85
2020/12/13 14:32:02;;;;;;;4.00;3.75;;;8.40;99.90;;;;;;6078074;23;20187;-86
2020/12/13 14:35:06;;;;;;;;;;;;;;;;;;;;;
2020/12/13 16:49:54;;;;;;;3.00;2.75;;;7.20;99.90;;;;;;5754036;24;20250;-84
2020/12/13 19:37:39;;;;;;;5.47;5.15;;;5.60;99.90;;;;;;6074082;23;20243;-86
2020/12/13 19:40:50;;;;;;;;;;;;;;;;;;;;;
